TimeEDT,TemperatureF,Dew PointF,Humidity,Sea Level PressureIn,VisibilityMPH,Wind Direction,Wind SpeedMPH,Gust SpeedMPH,PrecipitationIn,Events,Conditions,WindDirDegrees,DateUTC
12:55 AM,32.0,32.0,100,-9999,0.0,West,31.1,-,N/A,Fog,Light Freezing Fog,260,2013-03-13 04:55:00
1:52 AM,32.0,32.0,100,-9999,0.0,West,23.0,-,N/A,Fog,Fog,260,2013-03-13 05:52:00
2:49 AM,30.2,30.2,100,-9999,0.0,West,20.7,-,N/A,Fog,Light Freezing Fog,260,2013-03-13 06:49:00
3:53 AM,28.4,28.4,100,-9999,0.0,West,25.3,-,N/A,Fog,Light Freezing Fog,260,2013-03-13 07:53:00
4:51 AM,28.4,28.4,100,-9999,0.1,West,17.3,-,N/A,Fog,Light Freezing Fog,260,2013-03-13 08:51:00
5:48 AM,26.6,26.6,100,-9999,0.0,West,11.5,-,N/A,Fog,Light Freezing Fog,260,2013-03-13 09:48:00
7:51 AM,26.6,26.6,100,-9999,0.1,WSW,11.5,-,N/A,Fog,Light Freezing Fog,240,2013-03-13 11:51:00
8:53 AM,26.6,23.0,86,-9999,120.0,WSW,19.6,-,N/A,,Mostly Cloudy,240,2013-03-13 12:53:00
9:52 AM,24.8,14.0,64,-9999,120.0,WSW,24.2,-,N/A,,Mostly Cloudy,240,2013-03-13 13:52:00
10:54 AM,24.8,8.6,50,-9999,120.0,SW,17.3,-,N/A,,Mostly Cloudy,230,2013-03-13 14:54:00
11:59 AM,24.8,12.2,59,-9999,120.0,SW,19.6,-,N/A,,Partly Cloudy,230,2013-03-13 15:59:00
12:57 PM,24.8,6.8,46,-9999,120.0,SW,19.6,-,N/A,,Partly Cloudy,230,2013-03-13 16:57:00
1:47 PM,19.4,19.4,100,-9999,0.0,SW,15.0,-,N/A,Fog,Light Freezing Fog,230,2013-03-13 17:47:00
2:48 PM,17.6,17.6,100,-9999,0.0,SW,25.3,-,N/A,Fog,Light Freezing Fog,230,2013-03-13 18:48:00
3:51 PM,15.8,15.8,100,-9999,0.0,WNW,36.8,-,N/A,Fog,Light Freezing Fog,300,2013-03-13 19:51:00
4:49 PM,15.8,15.8,100,-9999,0.0,NW,39.1,-,N/A,Fog,Light Freezing Fog,310,2013-03-13 20:49:00
5:49 PM,14.0,14.0,100,-9999,0.1,NW,39.1,-,N/A,Fog,Light Freezing Fog,310,2013-03-13 21:49:00
6:49 PM,14.0,14.0,100,-9999,0.1,NW,48.3,-,N/A,Fog,Light Freezing Fog,310,2013-03-13 22:49:00
7:49 PM,12.2,12.2,100,-9999,0.0,NW,42.6,-,N/A,Fog,Light Freezing Fog,320,2013-03-13 23:49:00
8:53 PM,12.2,12.2,100,-9999,0.0,NW,35.7,42.6,N/A,Fog-Snow,Light Snow,310,2013-03-14 00:53:00
9:49 PM,12.2,12.2,100,-9999,0.0,NW,42.6,49.5,N/A,Fog-Snow,Light Snow,320,2013-03-14 01:49:00
10:55 PM,10.4,10.4,100,-9999,0.0,NW,41.4,-,N/A,Fog,Light Freezing Fog,320,2013-03-14 02:55:00
11:57 PM,8.6,8.6,100,-9999,0.0,WNW,42.6,49.5,N/A,Fog,Light Freezing Fog,300,2013-03-14 03:57:00